Lakefront Airport New Orleans US
ICAO: KNEW
IATA: NEW
Category: Medium
Scheduled Services: No

Elevation: 8 ft
TransAlt. 18000 ft.

Airport Communications:
NEW ORLEANS APP/DEP:123.85
ATIS:124.9
CLNC DEL:119.9
CTAF:119.9
GND:121.7
ARNG OPS:141.35
DE RIDDER RDO:122.6
TWR:119.9
UNICOM:122.95

KNEW Zoom In..

If you have problems with the map follow the link
https://www.worldairports.se/pages/airport.php?
ICAO=KNEW

Runways:

(A) RW 09 length 3114 ft width 75 ft
---- / hdg 87

(B) RW 18L length 3697 ft width 75 ft
---- / hdg 177

(C) RW 18R length 6879 ft width 150 ft
ILS 111.30 / hdg 177

(D) RW 27 length 3114 ft width 75 ft
---- / hdg 267

(E) RW 36L length 6879 ft width 150 ft
---- / hdg 357

(F) RW 36R length 3697 ft width 75 ft
---- / hdg 357

Location; KNEW
Day. 14 / Time. 17.53 Zulu
* Altimeter: 29.91
* Temperature: 14° c. 57.2°f.
* Wind from: 030° Speed 03 kn.
Dewpoint: 11° c.
Visibility: 3 Statute Miles.
Clouds: Scattered 300 ft.
Clouds: Broken 2300 ft.
Conditions: Haze.

KNEW 141753Z 03003KT 3SM HZ SCT003 BKN023 14/11 A2991 RMK AO2 SLP120 T01440111 10144 20111 58010


Wind From 030°
Speed 03 kn.

 
 
jpsmedia worldairports.se 2019   terms of use